createdAt,value
2023-04-30T00:00:44.636Z,1015.52
2023-04-30T00:01:44.637Z,1015.54
2023-04-30T00:02:44.681Z,1015.54
2023-04-30T00:03:44.706Z,1015.57
2023-04-30T00:04:44.593Z,1015.59
2023-04-30T00:05:44.618Z,1015.56
2023-04-30T00:06:44.653Z,1015.57
2023-04-30T00:07:44.561Z,1015.57
2023-04-30T00:08:44.545Z,1015.53
2023-04-30T00:09:44.539Z,1015.58
2023-04-30T00:10:44.543Z,1015.54
2023-04-30T00:11:44.521Z,1015.53
2023-04-30T00:12:44.496Z,1015.53
2023-04-30T00:13:44.491Z,1015.52
2023-04-30T00:14:44.475Z,1015.52
2023-04-30T00:15:44.509Z,1015.54
2023-04-30T00:16:44.515Z,1015.47
2023-04-30T00:17:44.482Z,1015.50
2023-04-30T00:18:44.433Z,1015.50
2023-04-30T00:19:44.425Z,1015.52
2023-04-30T00:20:44.415Z,1015.50
2023-04-30T00:21:44.438Z,1015.49
2023-04-30T00:22:44.389Z,1015.50
2023-04-30T00:23:44.377Z,1015.53
2023-04-30T00:24:44.377Z,1015.52
2023-04-30T00:25:44.376Z,1015.57
2023-04-30T00:26:44.345Z,1015.55
2023-04-30T00:27:44.363Z,1015.55
2023-04-30T00:28:44.327Z,1015.61
2023-04-30T00:29:44.312Z,1015.60
2023-04-30T00:30:44.304Z,1015.60
2023-04-30T00:31:44.423Z,1015.61
2023-04-30T00:32:44.352Z,1015.62
2023-04-30T00:33:44.266Z,1015.63
2023-04-30T00:34:44.256Z,1015.61
2023-04-30T00:35:44.250Z,1015.63
2023-04-30T00:36:44.228Z,1015.65
2023-04-30T00:37:44.239Z,1015.66
2023-04-30T00:38:44.238Z,1015.68
2023-04-30T00:39:44.202Z,1015.65
2023-04-30T00:40:44.189Z,1015.66
2023-04-30T00:41:44.174Z,1015.66
2023-04-30T00:42:44.153Z,1015.67
2023-04-30T00:43:44.155Z,1015.71
2023-04-30T00:44:44.156Z,1015.65
2023-04-30T00:45:44.182Z,1015.69
2023-04-30T00:46:44.112Z,1015.72
2023-04-30T00:47:44.142Z,1015.71
2023-04-30T00:48:44.262Z,1015.71
2023-04-30T00:49:44.113Z,1015.71
2023-04-30T00:50:44.069Z,1015.69
2023-04-30T00:51:44.065Z,1015.73
2023-04-30T00:52:44.043Z,1015.73
2023-04-30T00:53:44.046Z,1015.77
2023-04-30T00:54:44.020Z,1015.73
2023-04-30T00:55:44.058Z,1015.76
2023-04-30T00:56:44.010Z,1015.75
2023-04-30T00:57:43.999Z,1015.75
2023-04-30T00:58:43.984Z,1015.73
2023-04-30T00:59:43.969Z,1015.76
2023-04-30T01:00:43.952Z,1015.76
2023-04-30T01:01:44.090Z,1015.75
2023-04-30T01:02:43.997Z,1015.78
2023-04-30T01:03:43.995Z,1015.75
2023-04-30T01:04:43.922Z,1015.74
2023-04-30T01:05:43.899Z,1015.72
2023-04-30T01:06:43.934Z,1015.73
2023-04-30T01:07:43.930Z,1015.75
2023-04-30T01:08:43.860Z,1015.67
2023-04-30T01:09:43.860Z,1015.69
2023-04-30T01:10:43.842Z,1015.69
2023-04-30T01:11:43.832Z,1015.67
2023-04-30T01:12:43.819Z,1015.69
2023-04-30T01:13:43.837Z,1015.73
2023-04-30T01:14:43.797Z,1015.73
2023-04-30T01:15:43.831Z,1015.74
2023-04-30T01:16:43.775Z,1015.78
2023-04-30T01:17:43.782Z,1015.78
2023-04-30T01:18:43.788Z,1015.79
2023-04-30T01:19:43.775Z,1015.80
2023-04-30T01:20:43.729Z,1015.77
2023-04-30T01:21:43.744Z,1015.77
2023-04-30T01:22:43.705Z,1015.84
2023-04-30T01:23:43.698Z,1015.81
2023-04-30T01:24:43.691Z,1015.82
2023-04-30T01:25:43.692Z,1015.79
2023-04-30T01:26:43.662Z,1015.79
2023-04-30T01:27:43.653Z,1015.80
2023-04-30T01:28:43.633Z,1015.77
2023-04-30T01:29:43.629Z,1015.74
2023-04-30T01:30:44.083Z,1015.76
2023-04-30T01:31:43.689Z,1015.77
2023-04-30T01:32:43.699Z,1015.77
2023-04-30T01:33:43.583Z,1015.77
2023-04-30T01:34:43.572Z,1015.75
2023-04-30T01:35:43.561Z,1015.75
2023-04-30T01:36:43.575Z,1015.74
2023-04-30T01:37:43.538Z,1015.77
2023-04-30T01:38:43.523Z,1015.74
2023-04-30T01:39:43.515Z,1015.72
2023-04-30T01:40:43.513Z,1015.74
2023-04-30T01:41:43.494Z,1015.73
2023-04-30T01:42:43.514Z,1015.77
2023-04-30T01:43:43.474Z,1015.76
2023-04-30T01:44:43.462Z,1015.78
2023-04-30T01:45:43.448Z,1015.80
2023-04-30T01:46:43.576Z,1015.82
2023-04-30T01:47:43.462Z,1015.83
2023-04-30T01:48:43.436Z,1015.85
2023-04-30T01:49:43.406Z,1015.80
2023-04-30T01:50:43.397Z,1015.82
2023-04-30T01:51:43.434Z,1015.82
2023-04-30T01:52:43.368Z,1015.87
2023-04-30T01:53:43.455Z,1015.83
2023-04-30T01:54:43.347Z,1015.89
2023-04-30T01:55:43.332Z,1015.86
2023-04-30T01:56:43.348Z,1015.88
2023-04-30T01:57:43.310Z,1015.92
2023-04-30T01:58:43.300Z,1015.91
2023-04-30T01:59:43.287Z,1015.88
2023-04-30T02:00:43.276Z,1015.90
2023-04-30T02:01:43.302Z,1015.90
2023-04-30T02:02:43.312Z,1015.96
2023-04-30T02:03:43.314Z,1015.95
2023-04-30T02:04:43.230Z,1015.95
2023-04-30T02:05:43.217Z,1015.94
2023-04-30T02:06:43.279Z,1015.94
2023-04-30T02:07:43.195Z,1015.92
2023-04-30T02:08:43.187Z,1015.95
2023-04-30T02:09:43.170Z,1015.88
2023-04-30T02:10:43.169Z,1015.98
2023-04-30T02:11:43.173Z,1015.96
2023-04-30T02:12:43.140Z,1015.97
2023-04-30T02:13:43.118Z,1015.93
2023-04-30T02:14:43.115Z,1015.94
2023-04-30T02:15:43.217Z,1015.94
2023-04-30T02:16:43.169Z,1015.95
2023-04-30T02:17:43.150Z,1015.96
2023-04-30T02:18:43.072Z,1015.96
2023-04-30T02:19:43.053Z,1015.94
2023-04-30T02:20:43.053Z,1015.96
2023-04-30T02:21:43.067Z,1016.00
2023-04-30T02:22:43.027Z,1016.01
2023-04-30T02:23:43.013Z,1015.99
2023-04-30T02:24:43.004Z,1015.99
2023-04-30T02:25:42.990Z,1016.02
2023-04-30T02:26:42.994Z,1016.03
2023-04-30T02:27:42.964Z,1016.02
2023-04-30T02:28:42.968Z,1016.05
2023-04-30T02:29:42.948Z,1016.04
2023-04-30T02:30:42.944Z,1016.04
2023-04-30T02:31:43.023Z,1016.09
2023-04-30T02:32:42.951Z,1016.07
2023-04-30T02:33:42.898Z,1016.11
2023-04-30T02:34:42.889Z,1016.09
2023-04-30T02:35:43.018Z,1016.11
2023-04-30T02:36:42.889Z,1016.10
2023-04-30T02:37:42.852Z,1016.17
2023-04-30T02:38:42.857Z,1016.12
2023-04-30T02:39:42.829Z,1016.15
2023-04-30T02:40:42.822Z,1016.12
2023-04-30T02:41:42.825Z,1016.18
2023-04-30T02:42:42.799Z,1016.14
2023-04-30T02:43:42.788Z,1016.18
2023-04-30T02:44:42.772Z,1016.20
2023-04-30T02:45:42.991Z,1016.25
2023-04-30T02:46:42.773Z,1016.22
2023-04-30T02:47:42.764Z,1016.24
2023-04-30T02:48:42.745Z,1016.26
2023-04-30T02:49:42.728Z,1016.17
2023-04-30T02:50:42.759Z,1016.23
2023-04-30T02:51:42.708Z,1016.22
2023-04-30T02:52:42.677Z,1016.25
2023-04-30T02:53:42.668Z,1016.35
2023-04-30T02:54:42.659Z,1016.30
2023-04-30T02:55:42.649Z,1016.30
2023-04-30T02:56:42.660Z,1016.33
2023-04-30T02:57:42.631Z,1016.32
2023-04-30T02:58:42.615Z,1016.28
2023-04-30T02:59:42.601Z,1016.31
2023-04-30T03:00:42.593Z,1016.28
2023-04-30T03:01:42.647Z,1016.23
2023-04-30T03:02:42.647Z,1016.27
2023-04-30T03:03:42.591Z,1016.21
2023-04-30T03:04:42.575Z,1016.22
2023-04-30T03:05:42.536Z,1016.16
2023-04-30T03:06:42.598Z,1016.16
2023-04-30T03:07:42.507Z,1016.18
2023-04-30T03:08:42.510Z,1016.12
2023-04-30T03:09:42.484Z,1016.13
2023-04-30T03:10:42.483Z,1016.07
2023-04-30T03:11:42.482Z,1016.02
2023-04-30T03:12:42.456Z,1015.97
2023-04-30T03:13:42.439Z,1016.01
2023-04-30T03:14:42.434Z,1016.05
2023-04-30T03:15:42.418Z,1016.03
2023-04-30T03:16:42.480Z,1016.04
2023-04-30T03:17:45.368Z,1016.01
2023-04-30T03:18:42.383Z,1016.04
2023-04-30T03:19:42.391Z,1016.06
2023-04-30T03:20:42.379Z,1016.04
2023-04-30T03:21:42.382Z,1016.07
2023-04-30T03:22:42.342Z,1016.10
2023-04-30T03:23:42.332Z,1016.10
2023-04-30T03:24:42.329Z,1016.12
2023-04-30T03:25:42.307Z,1016.15
2023-04-30T03:26:42.329Z,1016.16
2023-04-30T03:27:42.284Z,1016.13
2023-04-30T03:28:42.287Z,1016.14
2023-04-30T03:29:42.261Z,1016.09
2023-04-30T03:30:42.255Z,1016.08
2023-04-30T03:31:42.311Z,1016.08
2023-04-30T03:32:42.295Z,1016.08
2023-04-30T03:33:42.255Z,1016.12
2023-04-30T03:34:42.221Z,1016.13
2023-04-30T03:35:42.193Z,1016.11
2023-04-30T03:36:42.212Z,1016.08
2023-04-30T03:37:42.182Z,1016.11
2023-04-30T03:38:42.172Z,1016.12
2023-04-30T03:39:42.152Z,1016.10
2023-04-30T03:40:42.146Z,1016.10
2023-04-30T03:41:42.145Z,1016.13
2023-04-30T03:42:42.144Z,1016.12
2023-04-30T03:43:42.104Z,1016.03
2023-04-30T03:44:42.100Z,1016.10
2023-04-30T03:45:42.311Z,1016.09
2023-04-30T03:46:42.157Z,1016.06
2023-04-30T03:47:42.094Z,1016.09
2023-04-30T03:48:42.055Z,1016.10
2023-04-30T03:49:42.052Z,1016.06
2023-04-30T03:50:42.027Z,1016.11
2023-04-30T03:51:42.253Z,1016.08
2023-04-30T03:52:42.035Z,1016.14
2023-04-30T03:53:42.020Z,1016.12
2023-04-30T03:54:42.001Z,1016.10
2023-04-30T03:55:41.976Z,1016.13
2023-04-30T03:56:41.982Z,1016.09
2023-04-30T03:57:41.966Z,1016.07
2023-04-30T03:58:41.972Z,1016.01
2023-04-30T03:59:41.924Z,1016.10
2023-04-30T04:00:41.942Z,1016.05
2023-04-30T04:01:41.965Z,1016.11
2023-04-30T04:02:41.951Z,1016.07
2023-04-30T04:03:41.908Z,1016.02
2023-04-30T04:04:41.878Z,1016.02
2023-04-30T04:05:41.869Z,1016.07
2023-04-30T04:06:41.981Z,1016.08
2023-04-30T04:07:41.842Z,1016.02
2023-04-30T04:08:41.847Z,1016.07
2023-04-30T04:09:41.821Z,1016.08
2023-04-30T04:10:41.810Z,1016.06
2023-04-30T04:11:41.818Z,1016.06
2023-04-30T04:12:41.777Z,1016.06
2023-04-30T04:13:41.776Z,1016.09
2023-04-30T04:14:41.764Z,1016.14
2023-04-30T04:15:41.834Z,1016.10
2023-04-30T04:16:41.901Z,1016.12
2023-04-30T04:17:41.779Z,1016.01
2023-04-30T04:18:41.716Z,1016.04
2023-04-30T04:19:41.721Z,1016.00
2023-04-30T04:20:41.703Z,1016.00
2023-04-30T04:21:41.712Z,1016.05
2023-04-30T04:22:41.684Z,1016.02
2023-04-30T04:23:41.672Z,1016.02
2023-04-30T04:24:41.668Z,1015.98
2023-04-30T04:25:41.650Z,1016.01
2023-04-30T04:26:41.658Z,1015.99
2023-04-30T04:27:41.612Z,1016.01
2023-04-30T04:28:41.606Z,1016.00
2023-04-30T04:29:41.606Z,1015.99
2023-04-30T04:30:41.583Z,1016.02
2023-04-30T04:31:41.753Z,1016.08
2023-04-30T04:32:41.613Z,1016.04
2023-04-30T04:33:41.548Z,1016.07
2023-04-30T04:34:41.533Z,1016.06
2023-04-30T04:35:41.545Z,1016.06
2023-04-30T04:36:41.549Z,1016.10
2023-04-30T04:37:41.500Z,1016.07
2023-04-30T04:38:41.482Z,1016.10
2023-04-30T04:39:41.473Z,1016.10
2023-04-30T04:40:41.457Z,1016.09
2023-04-30T04:41:41.477Z,1016.06
2023-04-30T04:42:41.442Z,1016.08
2023-04-30T04:43:41.433Z,1016.08
2023-04-30T04:44:41.420Z,1016.06
2023-04-30T04:45:41.413Z,1016.09
2023-04-30T04:46:41.448Z,1016.09
2023-04-30T04:47:41.471Z,1016.10
2023-04-30T04:48:41.384Z,1016.12
2023-04-30T04:49:41.370Z,1016.13
2023-04-30T04:50:41.369Z,1016.10
2023-04-30T04:51:41.369Z,1016.14
2023-04-30T04:52:41.340Z,1016.09
2023-04-30T04:53:41.305Z,1016.15
2023-04-30T04:54:41.302Z,1016.13
2023-04-30T04:55:41.305Z,1016.20
2023-04-30T04:56:41.290Z,1016.17
2023-04-30T04:57:41.268Z,1016.23
2023-04-30T04:58:41.268Z,1016.21
2023-04-30T04:59:41.254Z,1016.25
2023-04-30T05:00:41.241Z,1016.21
2023-04-30T05:01:41.309Z,1016.25
2023-04-30T05:02:41.318Z,1016.21
2023-04-30T05:03:41.315Z,1016.27
2023-04-30T05:04:41.184Z,1016.20
2023-04-30T05:05:41.188Z,1016.21
2023-04-30T05:06:41.389Z,1016.21
2023-04-30T05:07:41.164Z,1016.20
2023-04-30T05:08:41.151Z,1016.19
2023-04-30T05:09:41.140Z,1016.20
2023-04-30T05:10:41.122Z,1016.22
2023-04-30T05:11:41.143Z,1016.27
2023-04-30T05:12:41.097Z,1016.30
2023-04-30T05:13:41.090Z,1016.26
2023-04-30T05:14:41.074Z,1016.29
2023-04-30T05:15:41.109Z,1016.26
2023-04-30T05:16:41.112Z,1016.25
2023-04-30T05:17:41.118Z,1016.31
2023-04-30T05:18:41.031Z,1016.28
2023-04-30T05:19:41.230Z,1016.29
2023-04-30T05:20:41.005Z,1016.27
2023-04-30T05:21:41.026Z,1016.24
2023-04-30T05:22:40.991Z,1016.31
2023-04-30T05:23:40.973Z,1016.33
2023-04-30T05:24:40.957Z,1016.29
2023-04-30T05:25:40.968Z,1016.34
2023-04-30T05:26:40.997Z,1016.27
2023-04-30T05:27:40.936Z,1016.28
2023-04-30T05:28:40.910Z,1016.25
2023-04-30T05:29:40.916Z,1016.25
2023-04-30T05:30:40.976Z,1016.25
2023-04-30T05:31:41.004Z,1016.26
2023-04-30T05:32:40.887Z,1016.30
2023-04-30T05:33:40.865Z,1016.36
2023-04-30T05:34:40.849Z,1016.32
2023-04-30T05:35:40.836Z,1016.31
2023-04-30T05:36:41.942Z,1016.33
2023-04-30T05:37:40.817Z,1016.35
2023-04-30T05:38:40.807Z,1016.29
2023-04-30T05:39:40.810Z,1016.33
2023-04-30T05:40:40.794Z,1016.31
2023-04-30T05:41:40.790Z,1016.24
2023-04-30T05:42:40.781Z,1016.33
2023-04-30T05:43:40.753Z,1016.28
2023-04-30T05:44:40.733Z,1016.28
2023-04-30T05:45:40.736Z,1016.31
2023-04-30T05:46:40.733Z,1016.32
2023-04-30T05:47:40.756Z,1016.38
2023-04-30T05:48:40.687Z,1016.39
2023-04-30T05:49:40.681Z,1016.40
2023-04-30T05:50:40.666Z,1016.40
2023-04-30T05:51:40.681Z,1016.46
2023-04-30T05:52:40.638Z,1016.43
2023-04-30T05:53:40.636Z,1016.42
2023-04-30T05:54:40.619Z,1016.45
2023-04-30T05:55:40.614Z,1016.47
2023-04-30T05:56:40.617Z,1016.46
2023-04-30T05:57:40.616Z,1016.51
2023-04-30T05:58:40.574Z,1016.45
2023-04-30T05:59:40.590Z,1016.47
2023-04-30T06:00:40.556Z,1016.49
2023-04-30T06:01:40.592Z,1016.49
2023-04-30T06:02:40.592Z,1016.52
2023-04-30T06:03:40.549Z,1016.50
2023-04-30T06:04:40.506Z,1016.48
2023-04-30T06:05:40.585Z,1016.48
2023-04-30T06:06:40.587Z,1016.50
2023-04-30T06:07:40.481Z,1016.50
2023-04-30T06:08:40.461Z,1016.49
2023-04-30T06:09:40.454Z,1016.52
2023-04-30T06:10:40.449Z,1016.48
2023-04-30T06:11:42.410Z,1016.50
2023-04-30T06:12:40.434Z,1016.49
2023-04-30T06:13:40.411Z,1016.52
2023-04-30T06:14:40.401Z,1016.49
2023-04-30T06:15:40.408Z,1016.51
2023-04-30T06:16:40.441Z,1016.52
2023-04-30T06:17:40.409Z,1016.59
2023-04-30T06:18:40.359Z,1016.56
2023-04-30T06:19:40.346Z,1016.61
2023-04-30T06:20:40.326Z,1016.61
2023-04-30T06:21:40.353Z,1016.61
2023-04-30T06:22:40.308Z,1016.62
2023-04-30T06:23:40.303Z,1016.63
2023-04-30T06:24:40.280Z,1016.62
2023-04-30T06:25:40.400Z,1016.63
2023-04-30T06:26:40.281Z,1016.63
2023-04-30T06:27:40.252Z,1016.62
2023-04-30T06:28:40.235Z,1016.64
2023-04-30T06:29:40.235Z,1016.58
2023-04-30T06:30:40.212Z,1016.60
2023-04-30T06:31:40.275Z,1016.64
2023-04-30T06:32:40.208Z,1016.63
2023-04-30T06:33:40.187Z,1016.68
2023-04-30T06:34:40.164Z,1016.63
2023-04-30T06:35:40.160Z,1016.66
2023-04-30T06:36:40.163Z,1016.63
2023-04-30T06:37:40.133Z,1016.58
2023-04-30T06:38:40.118Z,1016.59
2023-04-30T06:39:40.110Z,1016.55
2023-04-30T06:40:40.101Z,1016.61
2023-04-30T06:41:40.128Z,1016.58
2023-04-30T06:42:40.076Z,1016.58
2023-04-30T06:43:40.095Z,1016.60
2023-04-30T06:44:40.059Z,1016.61
2023-04-30T06:45:40.061Z,1016.64
2023-04-30T06:46:40.195Z,1016.61
2023-04-30T06:47:40.117Z,1016.64
2023-04-30T06:48:40.045Z,1016.68
2023-04-30T06:49:39.998Z,1016.63
2023-04-30T06:50:40.005Z,1016.66
2023-04-30T06:51:39.999Z,1016.59
2023-04-30T06:52:39.954Z,1016.54
2023-04-30T06:53:39.957Z,1016.59
2023-04-30T06:54:39.939Z,1016.57
2023-04-30T06:55:39.932Z,1016.59
2023-04-30T06:56:39.942Z,1016.59
2023-04-30T06:57:39.920Z,1016.56
2023-04-30T06:58:39.906Z,1016.62
2023-04-30T06:59:39.884Z,1016.60
2023-04-30T07:00:39.876Z,1016.58
2023-04-30T07:01:39.915Z,1016.60
2023-04-30T07:02:39.972Z,1016.65
2023-04-30T07:03:39.929Z,1016.61
2023-04-30T07:04:39.826Z,1016.63
2023-04-30T07:05:39.820Z,1016.63
2023-04-30T07:06:39.959Z,1016.62
2023-04-30T07:07:39.791Z,1016.64
2023-04-30T07:08:39.776Z,1016.57
2023-04-30T07:09:39.781Z,1016.60
2023-04-30T07:10:39.753Z,1016.59
2023-04-30T07:11:39.765Z,1016.60
2023-04-30T07:12:39.851Z,1016.57
2023-04-30T07:13:39.743Z,1016.57
2023-04-30T07:14:39.725Z,1016.56
2023-04-30T07:15:40.398Z,1016.62
2023-04-30T07:16:39.706Z,1016.59
2023-04-30T07:17:39.774Z,1016.62
2023-04-30T07:18:39.733Z,1016.60
2023-04-30T07:19:39.738Z,1016.63
2023-04-30T07:20:39.648Z,1016.62
2023-04-30T07:21:39.657Z,1016.60
2023-04-30T07:22:39.622Z,1016.62
2023-04-30T07:23:39.614Z,1016.62
2023-04-30T07:24:39.595Z,1016.58
2023-04-30T07:25:39.589Z,1016.61
2023-04-30T07:26:39.589Z,1016.65
2023-04-30T07:27:39.567Z,1016.61
2023-04-30T07:28:39.559Z,1016.61
2023-04-30T07:29:39.540Z,1016.60
2023-04-30T07:30:39.527Z,1016.62
2023-04-30T07:31:39.606Z,1016.62
2023-04-30T07:32:39.537Z,1016.57
2023-04-30T07:33:39.501Z,1016.63
2023-04-30T07:34:39.487Z,1016.55
2023-04-30T07:35:39.471Z,1016.59
2023-04-30T07:36:39.504Z,1016.59
2023-04-30T07:37:41.209Z,1016.61
2023-04-30T07:38:39.459Z,1016.64
2023-04-30T07:39:39.426Z,1016.64
2023-04-30T07:40:39.457Z,1016.66
2023-04-30T07:41:39.430Z,1016.69
2023-04-30T07:42:39.386Z,1016.67
2023-04-30T07:43:39.386Z,1016.66
2023-04-30T07:44:39.362Z,1016.65
2023-04-30T07:45:39.365Z,1016.65
2023-04-30T07:46:39.457Z,1016.67
2023-04-30T07:47:39.402Z,1016.69
2023-04-30T07:48:39.331Z,1016.71
2023-04-30T07:49:39.323Z,1016.66
2023-04-30T07:50:39.304Z,1016.67
2023-04-30T07:51:39.315Z,1016.65
2023-04-30T07:52:39.287Z,1016.66
2023-04-30T07:53:39.268Z,1016.64
2023-04-30T07:54:39.259Z,1016.58
2023-04-30T07:55:39.249Z,1016.62
2023-04-30T07:56:39.259Z,1016.62
2023-04-30T07:57:39.227Z,1016.61
2023-04-30T07:58:39.207Z,1016.60
2023-04-30T07:59:39.210Z,1016.63
2023-04-30T08:00:39.202Z,1016.59
2023-04-30T08:01:39.264Z,1016.60
2023-04-30T08:02:39.288Z,1016.64
2023-04-30T08:03:39.271Z,1016.66
2023-04-30T08:04:39.140Z,1016.65
2023-04-30T08:05:39.134Z,1016.66
2023-04-30T08:06:39.321Z,1016.63
2023-04-30T08:07:39.109Z,1016.65
2023-04-30T08:08:39.105Z,1016.65
2023-04-30T08:09:39.096Z,1016.70
2023-04-30T08:10:39.069Z,1016.74
2023-04-30T08:11:39.090Z,1016.73
2023-04-30T08:12:39.063Z,1016.71
2023-04-30T08:13:39.052Z,1016.72
2023-04-30T08:14:39.046Z,1016.70
2023-04-30T08:15:39.027Z,1016.71
2023-04-30T08:16:39.121Z,1016.69
2023-04-30T08:17:39.024Z,1016.75
2023-04-30T08:18:38.989Z,1016.71
2023-04-30T08:19:38.985Z,1016.71
2023-04-30T08:20:38.961Z,1016.71
2023-04-30T08:21:38.978Z,1016.70
2023-04-30T08:22:38.951Z,1016.70
2023-04-30T08:23:38.930Z,1016.63
2023-04-30T08:24:38.924Z,1016.69
2023-04-30T08:25:38.913Z,1016.67
2023-04-30T08:26:38.917Z,1016.66
2023-04-30T08:27:38.886Z,1016.67
2023-04-30T08:28:38.876Z,1016.62
2023-04-30T08:29:38.870Z,1016.63
2023-04-30T08:30:38.868Z,1016.68
2023-04-30T08:31:38.912Z,1016.67
2023-04-30T08:32:38.850Z,1016.70
2023-04-30T08:33:38.813Z,1016.71
2023-04-30T08:34:38.806Z,1016.70
2023-04-30T08:35:38.787Z,1016.67
2023-04-30T08:36:38.798Z,1016.70
2023-04-30T08:37:38.779Z,1016.69
2023-04-30T08:38:38.766Z,1016.74
2023-04-30T08:39:38.749Z,1016.69
2023-04-30T08:40:51.109Z,1016.67
2023-04-30T08:41:38.743Z,1016.69
2023-04-30T08:42:38.710Z,1016.67
2023-04-30T08:43:38.698Z,1016.70
2023-04-30T08:44:38.697Z,1016.69
2023-04-30T08:45:38.680Z,1016.70
2023-04-30T08:46:38.771Z,1016.72
2023-04-30T08:47:38.702Z,1016.67
2023-04-30T08:48:38.645Z,1016.70
2023-04-30T08:49:38.617Z,1016.70
2023-04-30T08:50:38.623Z,1016.69
2023-04-30T08:51:38.732Z,1016.68
2023-04-30T08:52:38.601Z,1016.64
2023-04-30T08:53:38.634Z,1016.67
2023-04-30T08:54:38.585Z,1016.69
2023-04-30T08:55:38.573Z,1016.63
2023-04-30T08:56:38.581Z,1016.66
2023-04-30T08:57:38.608Z,1016.65
2023-04-30T08:58:38.551Z,1016.66
2023-04-30T08:59:38.514Z,1016.67
2023-04-30T09:00:38.500Z,1016.68
2023-04-30T09:01:38.581Z,1016.68
2023-04-30T09:02:38.520Z,1016.70
2023-04-30T09:03:38.548Z,1016.69
2023-04-30T09:04:38.476Z,1016.68
2023-04-30T09:05:38.478Z,1016.70
2023-04-30T09:06:38.522Z,1016.66
2023-04-30T09:07:39.880Z,1016.67
2023-04-30T09:08:38.411Z,1016.73
2023-04-30T09:09:38.398Z,1016.70
2023-04-30T09:10:38.396Z,1016.69
2023-04-30T09:11:38.392Z,1016.71
2023-04-30T09:12:38.368Z,1016.76
2023-04-30T09:13:38.349Z,1016.76
2023-04-30T09:14:38.355Z,1016.72
2023-04-30T09:15:38.379Z,1016.75
2023-04-30T09:16:38.341Z,1016.70
2023-04-30T09:17:38.356Z,1016.68
2023-04-30T09:18:38.309Z,1016.63
2023-04-30T09:19:38.288Z,1016.69
2023-04-30T09:20:38.273Z,1016.67
2023-04-30T09:21:38.284Z,1016.62
2023-04-30T09:22:38.259Z,1016.60
2023-04-30T09:23:38.264Z,1016.60
2023-04-30T09:24:38.234Z,1016.61
2023-04-30T09:25:38.214Z,1016.63
2023-04-30T09:26:38.232Z,1016.56
2023-04-30T09:27:38.197Z,1016.58
2023-04-30T09:28:38.179Z,1016.59
2023-04-30T09:29:38.173Z,1016.59
2023-04-30T09:30:38.162Z,1016.64
2023-04-30T09:31:38.346Z,1016.60
2023-04-30T09:32:38.159Z,1016.63
2023-04-30T09:33:38.124Z,1016.62
2023-04-30T09:34:38.120Z,1016.61
2023-04-30T09:35:38.101Z,1016.61
2023-04-30T09:36:38.130Z,1016.59
2023-04-30T09:37:38.121Z,1016.59
2023-04-30T09:38:38.080Z,1016.61
2023-04-30T09:39:38.056Z,1016.61
2023-04-30T09:40:38.047Z,1016.58
2023-04-30T09:41:38.048Z,1016.59
2023-04-30T09:42:38.030Z,1016.57
2023-04-30T09:43:38.016Z,1016.58
2023-04-30T09:44:38.026Z,1016.59
2023-04-30T09:45:37.994Z,1016.54
2023-04-30T09:46:38.010Z,1016.61
2023-04-30T09:47:37.999Z,1016.56
2023-04-30T09:48:38.034Z,1016.53
2023-04-30T09:49:37.957Z,1016.55
2023-04-30T09:50:37.934Z,1016.49
2023-04-30T09:51:37.945Z,1016.48
2023-04-30T09:52:37.912Z,1016.50
2023-04-30T09:53:37.906Z,1016.48
2023-04-30T09:54:37.889Z,1016.51
2023-04-30T09:55:37.874Z,1016.50
2023-04-30T09:56:37.899Z,1016.47
2023-04-30T09:57:37.851Z,1016.61
2023-04-30T09:58:37.844Z,1016.44
2023-04-30T09:59:37.833Z,1016.50
2023-04-30T10:00:37.846Z,1016.51
2023-04-30T10:01:40.388Z,1016.49
2023-04-30T10:02:37.834Z,1016.47
2023-04-30T10:03:37.795Z,1016.43
2023-04-30T10:04:37.797Z,1016.43
2023-04-30T10:05:37.766Z,1016.41
2023-04-30T10:06:37.805Z,1016.38
2023-04-30T10:07:37.731Z,1016.41
2023-04-30T10:08:37.733Z,1016.35
2023-04-30T10:09:37.712Z,1016.34
2023-04-30T10:10:37.707Z,1016.33
2023-04-30T10:11:37.710Z,1016.32
2023-04-30T10:12:37.692Z,1016.33
2023-04-30T10:13:37.683Z,1016.33
2023-04-30T10:14:37.668Z,1016.32
2023-04-30T10:15:37.652Z,1016.31
2023-04-30T10:16:37.757Z,1016.31
2023-04-30T10:17:37.703Z,1016.28
2023-04-30T10:18:37.626Z,1016.30
2023-04-30T10:19:37.621Z,1016.29
2023-04-30T10:20:37.609Z,1016.31
2023-04-30T10:21:37.600Z,1016.31
2023-04-30T10:22:37.566Z,1016.33
2023-04-30T10:23:37.558Z,1016.32
2023-04-30T10:24:37.553Z,1016.25
2023-04-30T10:25:37.552Z,1016.26
2023-04-30T10:26:37.552Z,1016.25
2023-04-30T10:27:37.514Z,1016.26
2023-04-30T10:28:37.508Z,1016.23
2023-04-30T10:29:37.490Z,1016.23
2023-04-30T10:30:37.486Z,1016.24
2023-04-30T10:31:37.538Z,1016.21
2023-04-30T10:32:37.489Z,1016.23
2023-04-30T10:33:37.442Z,1016.24
2023-04-30T10:34:37.444Z,1016.19
2023-04-30T10:35:37.430Z,1016.12
2023-04-30T10:36:37.447Z,1016.12
2023-04-30T10:37:37.408Z,1016.11
2023-04-30T10:38:37.398Z,1016.07
2023-04-30T10:39:37.388Z,1016.08
2023-04-30T10:40:37.375Z,1016.12
2023-04-30T10:41:37.715Z,1016.08
2023-04-30T10:42:37.350Z,1016.12
2023-04-30T10:43:37.335Z,1016.11
2023-04-30T10:44:37.350Z,1016.06
2023-04-30T10:45:37.346Z,1016.07
2023-04-30T10:46:37.377Z,1016.04
2023-04-30T10:47:37.296Z,1016.04
2023-04-30T10:48:37.274Z,1015.98
2023-04-30T10:49:37.294Z,1016.01
2023-04-30T10:50:37.262Z,1015.97
2023-04-30T10:51:37.262Z,1015.94
2023-04-30T10:52:37.232Z,1015.91
2023-04-30T10:53:37.227Z,1015.89
2023-04-30T10:54:37.241Z,1015.89
2023-04-30T10:55:37.200Z,1015.86
2023-04-30T10:56:37.212Z,1015.84
2023-04-30T10:57:37.176Z,1015.88
2023-04-30T10:58:37.181Z,1015.78
2023-04-30T10:59:37.169Z,1015.79
2023-04-30T11:00:37.146Z,1015.79
2023-04-30T11:01:37.218Z,1015.77
2023-04-30T11:02:37.182Z,1015.77
2023-04-30T11:03:37.142Z,1015.75
2023-04-30T11:04:37.125Z,1015.77
2023-04-30T11:05:37.091Z,1015.77
2023-04-30T11:06:37.140Z,1015.76
2023-04-30T11:07:37.060Z,1015.72
2023-04-30T11:08:37.068Z,1015.68
2023-04-30T11:09:37.042Z,1015.71
2023-04-30T11:10:37.032Z,1015.69
2023-04-30T11:11:37.044Z,1015.65
2023-04-30T11:12:37.028Z,1015.62
2023-04-30T11:13:36.997Z,1015.66
2023-04-30T11:14:36.995Z,1015.63
2023-04-30T11:15:37.012Z,1015.57
2023-04-30T11:16:37.012Z,1015.53
2023-04-30T11:17:37.030Z,1015.55
2023-04-30T11:18:37.682Z,1015.54
2023-04-30T11:19:36.945Z,1015.55
2023-04-30T11:20:36.919Z,1015.56
2023-04-30T11:21:36.915Z,1015.52
2023-04-30T11:22:36.927Z,1015.54
2023-04-30T11:23:41.629Z,1015.50
2023-04-30T11:24:36.890Z,1015.50
2023-04-30T11:25:36.851Z,1015.52
2023-04-30T11:26:36.872Z,1015.47
2023-04-30T11:27:36.831Z,1015.46
2023-04-30T11:28:36.823Z,1015.43
2023-04-30T11:29:36.857Z,1015.48
2023-04-30T11:30:36.803Z,1015.45
2023-04-30T11:31:36.854Z,1015.44
2023-04-30T11:32:36.855Z,1015.44
2023-04-30T11:33:36.763Z,1015.47
2023-04-30T11:34:36.761Z,1015.46
2023-04-30T11:35:36.746Z,1015.43
2023-04-30T11:36:36.754Z,1015.43
2023-04-30T11:37:36.717Z,1015.39
2023-04-30T11:38:36.703Z,1015.35
2023-04-30T11:39:36.693Z,1015.34
2023-04-30T11:40:36.693Z,1015.38
2023-04-30T11:41:36.688Z,1015.28
2023-04-30T11:42:36.669Z,1015.31
2023-04-30T11:43:36.651Z,1015.30
2023-04-30T11:44:36.641Z,1015.33
2023-04-30T11:45:36.626Z,1015.41
2023-04-30T11:46:36.656Z,1015.32
2023-04-30T11:47:36.617Z,1015.30
2023-04-30T11:48:36.622Z,1015.33
2023-04-30T11:49:36.581Z,1015.23
2023-04-30T11:50:36.586Z,1015.28
2023-04-30T11:51:36.593Z,1015.26
2023-04-30T11:52:36.551Z,1015.23
2023-04-30T11:53:36.530Z,1015.23
2023-04-30T11:54:36.542Z,1015.21
2023-04-30T11:55:36.535Z,1015.19
2023-04-30T11:56:36.528Z,1015.19
2023-04-30T11:57:36.492Z,1015.22
2023-04-30T11:58:36.486Z,1015.20
2023-04-30T11:59:36.469Z,1015.25
2023-04-30T12:00:36.460Z,1015.18
2023-04-30T12:01:36.514Z,1015.14
2023-04-30T12:02:36.523Z,1015.12
2023-04-30T12:03:36.504Z,1015.14
2023-04-30T12:04:36.449Z,1015.15
2023-04-30T12:05:36.401Z,1015.18